sensor_id;sensor_type;location;lat;lon;timestamp;temperature;humidity
21662;DHT22;10992;48.170;8.596;2022-11-14T00:01:08;2.90;99.90
21662;DHT22;10992;48.170;8.596;2022-11-14T00:03:54;2.90;99.90
21662;DHT22;10992;48.170;8.596;2022-11-14T00:06:39;3.00;99.90
21662;DHT22;10992;48.170;8.596;2022-11-14T00:09:26;3.00;99.90
21662;DHT22;10992;48.170;8.596;2022-11-14T00:12:12;3.00;99.90
21662;DHT22;10992;48.170;8.596;2022-11-14T00:14:57;3.00;99.90
21662;DHT22;10992;48.170;8.596;2022-11-14T00:17:43;3.00;99.90
21662;DHT22;10992;48.170;8.596;2022-11-14T00:20:28;3.00;99.90
21662;DHT22;10992;48.170;8.596;2022-11-14T00:23:14;3.00;99.90
21662;DHT22;10992;48.170;8.596;2022-11-14T00:25:59;3.00;99.90
21662;DHT22;10992;48.170;8.596;2022-11-14T00:28:45;3.10;99.90
21662;DHT22;10992;48.170;8.596;2022-11-14T00:31:30;3.10;99.90
21662;DHT22;10992;48.170;8.596;2022-11-14T00:34:16;3.10;99.90
21662;DHT22;10992;48.170;8.596;2022-11-14T00:37:01;3.10;99.90
21662;DHT22;10992;48.170;8.596;2022-11-14T00:39:47;3.10;99.90
21662;DHT22;10992;48.170;8.596;2022-11-14T00:42:33;3.10;99.90
21662;DHT22;10992;48.170;8.596;2022-11-14T00:45:18;3.10;99.90
21662;DHT22;10992;48.170;8.596;2022-11-14T00:48:04;3.20;99.90
21662;DHT22;10992;48.170;8.596;2022-11-14T00:50:50;3.10;99.90
21662;DHT22;10992;48.170;8.596;2022-11-14T00:53:35;3.20;99.90
21662;DHT22;10992;48.170;8.596;2022-11-14T00:56:21;3.10;99.90
21662;DHT22;10992;48.170;8.596;2022-11-14T00:59:07;3.10;99.90
21662;DHT22;10992;48.170;8.596;2022-11-14T01:01:52;3.10;99.90
21662;DHT22;10992;48.170;8.596;2022-11-14T01:04:42;3.10;99.90
21662;DHT22;10992;48.170;8.596;2022-11-14T01:07:27;3.10;99.90
21662;DHT22;10992;48.170;8.596;2022-11-14T01:10:13;3.20;99.90
21662;DHT22;10992;48.170;8.596;2022-11-14T01:12:58;3.10;99.90
21662;DHT22;10992;48.170;8.596;2022-11-14T01:15:46;3.20;99.90
21662;DHT22;10992;48.170;8.596;2022-11-14T01:18:32;3.10;99.90
21662;DHT22;10992;48.170;8.596;2022-11-14T01:21:17;3.20;99.90
21662;DHT22;10992;48.170;8.596;2022-11-14T01:24:03;3.20;99.90
21662;DHT22;10992;48.170;8.596;2022-11-14T01:26:49;3.20;99.90
21662;DHT22;10992;48.170;8.596;2022-11-14T01:29:34;3.20;99.90
21662;DHT22;10992;48.170;8.596;2022-11-14T01:32:20;3.10;99.90
21662;DHT22;10992;48.170;8.596;2022-11-14T01:35:05;3.20;99.90
21662;DHT22;10992;48.170;8.596;2022-11-14T01:37:51;3.20;99.90
21662;DHT22;10992;48.170;8.596;2022-11-14T01:40:41;3.20;99.90
21662;DHT22;10992;48.170;8.596;2022-11-14T01:43:32;3.20;99.90
21662;DHT22;10992;48.170;8.596;2022-11-14T01:49:23;3.20;99.90
21662;DHT22;10992;48.170;8.596;2022-11-14T01:52:18;3.20;99.90
21662;DHT22;10992;48.170;8.596;2022-11-14T01:55:06;3.20;99.90
21662;DHT22;10992;48.170;8.596;2022-11-14T01:57:52;3.30;99.90
21662;DHT22;10992;48.170;8.596;2022-11-14T02:00:38;3.20;99.90
21662;DHT22;10992;48.170;8.596;2022-11-14T02:03:23;3.20;99.90
21662;DHT22;10992;48.170;8.596;2022-11-14T02:06:12;3.20;99.90
21662;DHT22;10992;48.170;8.596;2022-11-14T02:09:03;3.20;99.90
21662;DHT22;10992;48.170;8.596;2022-11-14T02:11:50;3.30;99.90
21662;DHT22;10992;48.170;8.596;2022-11-14T02:14:37;3.30;99.90
21662;DHT22;10992;48.170;8.596;2022-11-14T02:17:24;3.30;99.90
21662;DHT22;10992;48.170;8.596;2022-11-14T02:20:25;3.30;99.90
21662;DHT22;10992;48.170;8.596;2022-11-14T02:23:13;3.30;99.90
21662;DHT22;10992;48.170;8.596;2022-11-14T02:25:58;3.20;99.90
21662;DHT22;10992;48.170;8.596;2022-11-14T02:28:44;3.30;99.90
21662;DHT22;10992;48.170;8.596;2022-11-14T02:31:29;3.20;99.90
21662;DHT22;10992;48.170;8.596;2022-11-14T02:34:15;3.30;99.90
21662;DHT22;10992;48.170;8.596;2022-11-14T02:37:04;3.30;99.90
21662;DHT22;10992;48.170;8.596;2022-11-14T02:39:50;3.30;99.90
21662;DHT22;10992;48.170;8.596;2022-11-14T02:42:35;3.30;99.90
21662;DHT22;10992;48.170;8.596;2022-11-14T02:45:21;3.30;99.90
21662;DHT22;10992;48.170;8.596;2022-11-14T02:48:06;3.30;99.90
21662;DHT22;10992;48.170;8.596;2022-11-14T02:50:52;3.30;99.90
21662;DHT22;10992;48.170;8.596;2022-11-14T02:53:37;3.30;99.90
21662;DHT22;10992;48.170;8.596;2022-11-14T02:56:23;3.30;99.90
21662;DHT22;10992;48.170;8.596;2022-11-14T02:59:08;3.30;99.90
21662;DHT22;10992;48.170;8.596;2022-11-14T03:01:54;3.30;99.90
21662;DHT22;10992;48.170;8.596;2022-11-14T03:04:39;3.30;99.90
21662;DHT22;10992;48.170;8.596;2022-11-14T03:07:25;3.30;99.90
21662;DHT22;10992;48.170;8.596;2022-11-14T03:10:11;3.30;99.90
21662;DHT22;10992;48.170;8.596;2022-11-14T03:12:58;3.30;99.90
21662;DHT22;10992;48.170;8.596;2022-11-14T03:15:43;3.40;99.90
21662;DHT22;10992;48.170;8.596;2022-11-14T03:18:29;3.40;99.90
21662;DHT22;10992;48.170;8.596;2022-11-14T03:21:17;3.40;99.90
21662;DHT22;10992;48.170;8.596;2022-11-14T03:24:03;3.40;99.90
21662;DHT22;10992;48.170;8.596;2022-11-14T03:26:49;3.40;99.90
21662;DHT22;10992;48.170;8.596;2022-11-14T03:29:34;3.50;99.90
21662;DHT22;10992;48.170;8.596;2022-11-14T03:32:20;3.40;99.90
21662;DHT22;10992;48.170;8.596;2022-11-14T03:35:06;3.50;99.90
21662;DHT22;10992;48.170;8.596;2022-11-14T03:37:51;3.50;99.90
21662;DHT22;10992;48.170;8.596;2022-11-14T03:40:40;3.40;99.90
21662;DHT22;10992;48.170;8.596;2022-11-14T03:43:30;3.50;99.90
21662;DHT22;10992;48.170;8.596;2022-11-14T03:46:16;3.50;99.90
21662;DHT22;10992;48.170;8.596;2022-11-14T03:49:02;3.50;99.90
21662;DHT22;10992;48.170;8.596;2022-11-14T03:51:48;3.50;99.90
21662;DHT22;10992;48.170;8.596;2022-11-14T03:54:34;3.60;99.90
21662;DHT22;10992;48.170;8.596;2022-11-14T03:57:20;3.50;99.90
21662;DHT22;10992;48.170;8.596;2022-11-14T04:00:06;3.50;99.90
21662;DHT22;10992;48.170;8.596;2022-11-14T04:02:53;3.50;99.90
21662;DHT22;10992;48.170;8.596;2022-11-14T04:05:43;3.50;99.90
21662;DHT22;10992;48.170;8.596;2022-11-14T04:08:30;3.50;99.90
21662;DHT22;10992;48.170;8.596;2022-11-14T04:11:16;3.50;99.90
21662;DHT22;10992;48.170;8.596;2022-11-14T04:14:02;3.60;99.90
21662;DHT22;10992;48.170;8.596;2022-11-14T04:16:48;3.50;99.90
21662;DHT22;10992;48.170;8.596;2022-11-14T04:19:33;3.50;99.90
21662;DHT22;10992;48.170;8.596;2022-11-14T04:22:19;3.50;99.90
21662;DHT22;10992;48.170;8.596;2022-11-14T04:25:05;3.50;99.90
21662;DHT22;10992;48.170;8.596;2022-11-14T04:27:51;3.50;99.90
21662;DHT22;10992;48.170;8.596;2022-11-14T04:30:37;3.40;99.90
21662;DHT22;10992;48.170;8.596;2022-11-14T04:33:22;3.40;99.90
21662;DHT22;10992;48.170;8.596;2022-11-14T04:36:08;3.40;99.90
21662;DHT22;10992;48.170;8.596;2022-11-14T04:38:54;3.30;99.90
21662;DHT22;10992;48.170;8.596;2022-11-14T04:41:39;3.30;99.90
21662;DHT22;10992;48.170;8.596;2022-11-14T04:44:25;3.30;99.90
21662;DHT22;10992;48.170;8.596;2022-11-14T04:47:10;3.30;99.90
21662;DHT22;10992;48.170;8.596;2022-11-14T04:49:56;3.40;99.90
21662;DHT22;10992;48.170;8.596;2022-11-14T04:52:41;3.40;99.90
21662;DHT22;10992;48.170;8.596;2022-11-14T04:55:27;3.40;99.90
21662;DHT22;10992;48.170;8.596;2022-11-14T04:58:13;3.40;99.90
21662;DHT22;10992;48.170;8.596;2022-11-14T05:00:58;3.40;99.90
21662;DHT22;10992;48.170;8.596;2022-11-14T05:03:44;3.50;99.90
21662;DHT22;10992;48.170;8.596;2022-11-14T05:06:29;3.50;99.90
21662;DHT22;10992;48.170;8.596;2022-11-14T05:09:15;3.60;99.90
21662;DHT22;10992;48.170;8.596;2022-11-14T05:12:00;3.60;99.90
21662;DHT22;10992;48.170;8.596;2022-11-14T05:14:46;3.60;99.90
21662;DHT22;10992;48.170;8.596;2022-11-14T05:17:32;3.60;99.90
21662;DHT22;10992;48.170;8.596;2022-11-14T05:20:17;3.70;99.90
21662;DHT22;10992;48.170;8.596;2022-11-14T05:23:03;3.70;99.90
21662;DHT22;10992;48.170;8.596;2022-11-14T05:26:04;3.70;99.90
21662;DHT22;10992;48.170;8.596;2022-11-14T05:28:49;3.80;99.90
21662;DHT22;10992;48.170;8.596;2022-11-14T05:31:35;3.80;99.90
21662;DHT22;10992;48.170;8.596;2022-11-14T05:34:20;3.90;99.90
21662;DHT22;10992;48.170;8.596;2022-11-14T05:37:06;3.90;99.90
21662;DHT22;10992;48.170;8.596;2022-11-14T05:39:52;3.90;99.90
21662;DHT22;10992;48.170;8.596;2022-11-14T05:42:38;3.90;99.90
21662;DHT22;10992;48.170;8.596;2022-11-14T05:45:23;3.90;99.90
21662;DHT22;10992;48.170;8.596;2022-11-14T05:48:09;3.90;99.90
21662;DHT22;10992;48.170;8.596;2022-11-14T05:50:58;4.00;99.90
21662;DHT22;10992;48.170;8.596;2022-11-14T05:53:44;4.00;99.90
21662;DHT22;10992;48.170;8.596;2022-11-14T05:56:29;4.00;99.90
21662;DHT22;10992;48.170;8.596;2022-11-14T05:59:15;4.10;99.90
21662;DHT22;10992;48.170;8.596;2022-11-14T06:02:01;4.10;99.90
21662;DHT22;10992;48.170;8.596;2022-11-14T06:04:46;4.20;99.90
21662;DHT22;10992;48.170;8.596;2022-11-14T06:07:32;4.20;99.90
21662;DHT22;10992;48.170;8.596;2022-11-14T06:10:17;4.30;99.90
21662;DHT22;10992;48.170;8.596;2022-11-14T06:13:03;4.40;99.90
21662;DHT22;10992;48.170;8.596;2022-11-14T06:15:49;4.50;99.90
21662;DHT22;10992;48.170;8.596;2022-11-14T06:18:35;4.60;99.90
21662;DHT22;10992;48.170;8.596;2022-11-14T06:21:23;4.70;99.90
21662;DHT22;10992;48.170;8.596;2022-11-14T06:24:08;4.70;99.90
21662;DHT22;10992;48.170;8.596;2022-11-14T06:26:54;4.80;99.90
21662;DHT22;10992;48.170;8.596;2022-11-14T06:29:39;4.90;99.90
21662;DHT22;10992;48.170;8.596;2022-11-14T06:32:25;5.00;99.90
21662;DHT22;10992;48.170;8.596;2022-11-14T06:35:10;5.00;99.90
21662;DHT22;10992;48.170;8.596;2022-11-14T06:37:58;5.00;99.90
21662;DHT22;10992;48.170;8.596;2022-11-14T06:40:44;5.10;99.90
21662;DHT22;10992;48.170;8.596;2022-11-14T06:43:32;5.20;99.90
21662;DHT22;10992;48.170;8.596;2022-11-14T06:46:20;5.20;99.90
21662;DHT22;10992;48.170;8.596;2022-11-14T06:49:06;5.30;99.90
21662;DHT22;10992;48.170;8.596;2022-11-14T06:51:51;5.30;99.90
21662;DHT22;10992;48.170;8.596;2022-11-14T06:54:37;5.40;99.90
21662;DHT22;10992;48.170;8.596;2022-11-14T06:57:22;5.40;99.90
21662;DHT22;10992;48.170;8.596;2022-11-14T07:00:08;5.50;99.90
21662;DHT22;10992;48.170;8.596;2022-11-14T07:02:54;5.60;99.90
21662;DHT22;10992;48.170;8.596;2022-11-14T07:05:39;5.80;99.90
21662;DHT22;10992;48.170;8.596;2022-11-14T07:08:25;5.80;99.90
21662;DHT22;10992;48.170;8.596;2022-11-14T07:11:12;5.90;99.90
21662;DHT22;10992;48.170;8.596;2022-11-14T07:14:08;5.90;99.90
21662;DHT22;10992;48.170;8.596;2022-11-14T07:16:53;5.90;99.90
21662;DHT22;10992;48.170;8.596;2022-11-14T07:19:39;6.00;99.90
21662;DHT22;10992;48.170;8.596;2022-11-14T07:22:24;6.00;99.90
21662;DHT22;10992;48.170;8.596;2022-11-14T07:25:10;5.90;99.90
21662;DHT22;10992;48.170;8.596;2022-11-14T07:27:56;5.90;99.90
21662;DHT22;10992;48.170;8.596;2022-11-14T07:30:42;5.90;99.90
21662;DHT22;10992;48.170;8.596;2022-11-14T07:33:28;5.90;99.90
21662;DHT22;10992;48.170;8.596;2022-11-14T07:36:15;5.90;99.90
21662;DHT22;10992;48.170;8.596;2022-11-14T07:39:00;5.90;99.90
21662;DHT22;10992;48.170;8.596;2022-11-14T07:41:46;5.90;99.90
21662;DHT22;10992;48.170;8.596;2022-11-14T07:44:31;5.80;99.90
21662;DHT22;10992;48.170;8.596;2022-11-14T07:47:17;5.80;99.90
21662;DHT22;10992;48.170;8.596;2022-11-14T07:50:02;5.80;99.90
21662;DHT22;10992;48.170;8.596;2022-11-14T07:52:52;5.80;99.90
21662;DHT22;10992;48.170;8.596;2022-11-14T07:55:38;5.80;99.90
21662;DHT22;10992;48.170;8.596;2022-11-14T07:58:24;5.80;99.90
21662;DHT22;10992;48.170;8.596;2022-11-14T08:01:11;5.90;99.90
21662;DHT22;10992;48.170;8.596;2022-11-14T08:03:57;5.90;99.90
21662;DHT22;10992;48.170;8.596;2022-11-14T08:06:42;5.90;99.90
21662;DHT22;10992;48.170;8.596;2022-11-14T08:09:28;6.00;99.90
21662;DHT22;10992;48.170;8.596;2022-11-14T08:12:13;6.00;99.90
21662;DHT22;10992;48.170;8.596;2022-11-14T08:14:59;6.00;99.90
21662;DHT22;10992;48.170;8.596;2022-11-14T08:17:45;6.00;99.90
21662;DHT22;10992;48.170;8.596;2022-11-14T08:20:30;6.00;99.90
21662;DHT22;10992;48.170;8.596;2022-11-14T08:23:16;6.00;99.90
21662;DHT22;10992;48.170;8.596;2022-11-14T08:26:01;6.00;99.90
21662;DHT22;10992;48.170;8.596;2022-11-14T08:28:47;6.00;99.90
21662;DHT22;10992;48.170;8.596;2022-11-14T08:31:32;6.10;99.90
21662;DHT22;10992;48.170;8.596;2022-11-14T08:34:17;6.10;99.90
21662;DHT22;10992;48.170;8.596;2022-11-14T08:37:03;6.20;99.90
21662;DHT22;10992;48.170;8.596;2022-11-14T08:39:49;6.20;99.90
21662;DHT22;10992;48.170;8.596;2022-11-14T08:42:34;6.20;99.90
21662;DHT22;10992;48.170;8.596;2022-11-14T08:45:20;6.30;99.90
21662;DHT22;10992;48.170;8.596;2022-11-14T08:48:05;6.30;99.90
21662;DHT22;10992;48.170;8.596;2022-11-14T08:50:52;6.30;99.90
21662;DHT22;10992;48.170;8.596;2022-11-14T08:53:37;6.40;99.90
21662;DHT22;10992;48.170;8.596;2022-11-14T08:56:23;6.40;99.90
21662;DHT22;10992;48.170;8.596;2022-11-14T08:59:08;6.40;99.90
21662;DHT22;10992;48.170;8.596;2022-11-14T09:01:54;6.40;99.90
21662;DHT22;10992;48.170;8.596;2022-11-14T09:04:39;6.50;99.90
21662;DHT22;10992;48.170;8.596;2022-11-14T09:07:26;6.50;99.90
21662;DHT22;10992;48.170;8.596;2022-11-14T09:10:17;6.40;99.90
21662;DHT22;10992;48.170;8.596;2022-11-14T09:13:03;6.50;99.90
21662;DHT22;10992;48.170;8.596;2022-11-14T09:15:48;6.50;99.90
21662;DHT22;10992;48.170;8.596;2022-11-14T09:18:34;6.50;99.90
21662;DHT22;10992;48.170;8.596;2022-11-14T09:21:20;6.50;99.90
21662;DHT22;10992;48.170;8.596;2022-11-14T09:24:06;6.60;99.90
21662;DHT22;10992;48.170;8.596;2022-11-14T09:26:51;6.60;99.90
21662;DHT22;10992;48.170;8.596;2022-11-14T09:29:41;6.60;99.90
21662;DHT22;10992;48.170;8.596;2022-11-14T09:32:26;6.70;99.90
21662;DHT22;10992;48.170;8.596;2022-11-14T09:35:12;6.70;99.90
21662;DHT22;10992;48.170;8.596;2022-11-14T09:38:02;6.80;99.90
21662;DHT22;10992;48.170;8.596;2022-11-14T09:44:52;6.80;99.90
21662;DHT22;10992;48.170;8.596;2022-11-14T09:50:36;6.80;99.90
21662;DHT22;10992;48.170;8.596;2022-11-14T09:53:35;6.80;99.90
21662;DHT22;10992;48.170;8.596;2022-11-14T09:56:25;6.80;99.90
21662;DHT22;10992;48.170;8.596;2022-11-14T09:59:12;6.90;99.90
21662;DHT22;10992;48.170;8.596;2022-11-14T10:10:52;6.80;99.90
21662;DHT22;10992;48.170;8.596;2022-11-14T10:19:41;6.80;99.90
21662;DHT22;10992;48.170;8.596;2022-11-14T10:25:43;6.90;99.90
21662;DHT22;10992;48.170;8.596;2022-11-14T10:34:58;6.90;99.90
21662;DHT22;10992;48.170;8.596;2022-11-14T10:38:18;7.00;99.90
21662;DHT22;10992;48.170;8.596;2022-11-14T10:41:08;6.90;99.90
21662;DHT22;10992;48.170;8.596;2022-11-14T10:44:19;7.00;99.90
21662;DHT22;10992;48.170;8.596;2022-11-14T10:47:13;7.00;99.90
21662;DHT22;10992;48.170;8.596;2022-11-14T10:50:11;7.00;99.90
21662;DHT22;10992;48.170;8.596;2022-11-14T10:53:01;7.00;99.90
21662;DHT22;10992;48.170;8.596;2022-11-14T10:55:53;7.10;99.90
21662;DHT22;10992;48.170;8.596;2022-11-14T10:58:49;7.10;99.90
21662;DHT22;10992;48.170;8.596;2022-11-14T11:01:43;7.10;99.90
21662;DHT22;10992;48.170;8.596;2022-11-14T11:04:30;7.20;99.90
21662;DHT22;10992;48.170;8.596;2022-11-14T11:07:25;7.20;99.90
21662;DHT22;10992;48.170;8.596;2022-11-14T11:10:30;7.30;99.90
21662;DHT22;10992;48.170;8.596;2022-11-14T11:13:38;7.40;99.90
21662;DHT22;10992;48.170;8.596;2022-11-14T11:16:26;7.50;99.90
21662;DHT22;10992;48.170;8.596;2022-11-14T11:19:17;7.60;99.90
21662;DHT22;10992;48.170;8.596;2022-11-14T11:22:26;7.70;99.90
21662;DHT22;10992;48.170;8.596;2022-11-14T11:25:25;7.80;99.90
21662;DHT22;10992;48.170;8.596;2022-11-14T11:28:17;7.90;99.90
21662;DHT22;10992;48.170;8.596;2022-11-14T11:31:06;8.00;99.90
21662;DHT22;10992;48.170;8.596;2022-11-14T11:33:51;8.10;99.90
21662;DHT22;10992;48.170;8.596;2022-11-14T11:36:41;8.20;99.90
21662;DHT22;10992;48.170;8.596;2022-11-14T11:39:36;8.30;99.90
21662;DHT22;10992;48.170;8.596;2022-11-14T11:42:25;8.30;99.90
21662;DHT22;10992;48.170;8.596;2022-11-14T11:45:33;8.40;99.90
21662;DHT22;10992;48.170;8.596;2022-11-14T11:48:21;8.40;99.90
21662;DHT22;10992;48.170;8.596;2022-11-14T11:51:15;8.60;99.90
21662;DHT22;10992;48.170;8.596;2022-11-14T11:54:23;8.50;99.90
21662;DHT22;10992;48.170;8.596;2022-11-14T11:57:15;8.50;99.90
21662;DHT22;10992;48.170;8.596;2022-11-14T12:00:18;8.60;99.90
21662;DHT22;10992;48.170;8.596;2022-11-14T12:03:10;8.70;99.90
21662;DHT22;10992;48.170;8.596;2022-11-14T12:11:46;8.80;99.90
21662;DHT22;10992;48.170;8.596;2022-11-14T12:20:55;8.70;99.90
21662;DHT22;10992;48.170;8.596;2022-11-14T12:27:05;8.60;99.90
21662;DHT22;10992;48.170;8.596;2022-11-14T12:30:09;8.50;99.90
21662;DHT22;10992;48.170;8.596;2022-11-14T12:33:14;8.50;99.90
21662;DHT22;10992;48.170;8.596;2022-11-14T12:36:02;8.50;99.90
21662;DHT22;10992;48.170;8.596;2022-11-14T12:38:53;8.50;99.90
21662;DHT22;10992;48.170;8.596;2022-11-14T12:41:39;8.50;99.90
21662;DHT22;10992;48.170;8.596;2022-11-14T12:47:34;8.80;99.90
21662;DHT22;10992;48.170;8.596;2022-11-14T12:50:39;8.80;99.90
21662;DHT22;10992;48.170;8.596;2022-11-14T12:59:31;8.60;99.90
21662;DHT22;10992;48.170;8.596;2022-11-14T13:05:17;8.40;99.90
21662;DHT22;10992;48.170;8.596;2022-11-14T13:11:43;8.30;99.90
21662;DHT22;10992;48.170;8.596;2022-11-14T13:14:52;8.30;99.90
21662;DHT22;10992;48.170;8.596;2022-11-14T13:18:17;8.20;99.90
21662;DHT22;10992;48.170;8.596;2022-11-14T13:21:27;8.20;99.90
21662;DHT22;10992;48.170;8.596;2022-11-14T13:27:42;8.20;99.90
21662;DHT22;10992;48.170;8.596;2022-11-14T13:43:43;8.40;99.90
21662;DHT22;10992;48.170;8.596;2022-11-14T13:46:51;8.40;99.90
21662;DHT22;10992;48.170;8.596;2022-11-14T13:49:53;8.40;99.90
21662;DHT22;10992;48.170;8.596;2022-11-14T13:52:43;8.30;99.90
21662;DHT22;10992;48.170;8.596;2022-11-14T13:55:36;8.30;99.90
21662;DHT22;10992;48.170;8.596;2022-11-14T14:10:34;8.50;99.90
21662;DHT22;10992;48.170;8.596;2022-11-14T14:16:55;8.40;99.90
21662;DHT22;10992;48.170;8.596;2022-11-14T14:19:58;8.40;99.90
21662;DHT22;10992;48.170;8.596;2022-11-14T14:26:30;8.30;99.90
21662;DHT22;10992;48.170;8.596;2022-11-14T14:32:17;8.30;99.90
21662;DHT22;10992;48.170;8.596;2022-11-14T14:35:24;8.20;99.90
21662;DHT22;10992;48.170;8.596;2022-11-14T14:38:12;8.20;99.90
21662;DHT22;10992;48.170;8.596;2022-11-14T14:41:06;8.20;99.90
21662;DHT22;10992;48.170;8.596;2022-11-14T14:43:54;8.20;99.90
21662;DHT22;10992;48.170;8.596;2022-11-14T14:46:40;8.20;99.90
21662;DHT22;10992;48.170;8.596;2022-11-14T14:49:29;8.20;99.90
21662;DHT22;10992;48.170;8.596;2022-11-14T14:52:35;8.10;99.90
21662;DHT22;10992;48.170;8.596;2022-11-14T14:55:27;8.10;99.90
21662;DHT22;10992;48.170;8.596;2022-11-14T14:58:25;8.00;99.90
21662;DHT22;10992;48.170;8.596;2022-11-14T15:01:13;8.00;99.90
21662;DHT22;10992;48.170;8.596;2022-11-14T15:04:06;8.00;99.90
21662;DHT22;10992;48.170;8.596;2022-11-14T15:06:53;8.00;99.90
21662;DHT22;10992;48.170;8.596;2022-11-14T15:09:58;8.00;99.90
21662;DHT22;10992;48.170;8.596;2022-11-14T15:12:44;8.00;99.90
21662;DHT22;10992;48.170;8.596;2022-11-14T15:15:30;8.00;99.90
21662;DHT22;10992;48.170;8.596;2022-11-14T15:18:30;8.00;99.90
21662;DHT22;10992;48.170;8.596;2022-11-14T15:24:18;7.90;99.90
21662;DHT22;10992;48.170;8.596;2022-11-14T15:27:10;7.90;99.90
21662;DHT22;10992;48.170;8.596;2022-11-14T15:29:58;7.80;99.90
21662;DHT22;10992;48.170;8.596;2022-11-14T15:32:49;7.80;99.90
21662;DHT22;10992;48.170;8.596;2022-11-14T15:35:37;7.80;99.90
21662;DHT22;10992;48.170;8.596;2022-11-14T15:38:23;7.80;99.90
21662;DHT22;10992;48.170;8.596;2022-11-14T15:41:32;7.70;99.90
21662;DHT22;10992;48.170;8.596;2022-11-14T15:44:32;7.70;99.90
21662;DHT22;10992;48.170;8.596;2022-11-14T15:47:24;7.70;99.90
21662;DHT22;10992;48.170;8.596;2022-11-14T15:53:04;7.60;99.90
21662;DHT22;10992;48.170;8.596;2022-11-14T15:55:50;7.70;99.90
21662;DHT22;10992;48.170;8.596;2022-11-14T15:58:36;7.60;99.90
21662;DHT22;10992;48.170;8.596;2022-11-14T16:01:22;7.60;99.90
21662;DHT22;10992;48.170;8.596;2022-11-14T16:04:17;7.70;99.90
21662;DHT22;10992;48.170;8.596;2022-11-14T16:07:04;7.60;99.90
21662;DHT22;10992;48.170;8.596;2022-11-14T16:09:50;7.60;99.90
21662;DHT22;10992;48.170;8.596;2022-11-14T16:12:35;7.70;99.90
21662;DHT22;10992;48.170;8.596;2022-11-14T16:15:21;7.70;99.90
21662;DHT22;10992;48.170;8.596;2022-11-14T16:18:07;7.60;99.90
21662;DHT22;10992;48.170;8.596;2022-11-14T16:20:53;7.70;99.90
21662;DHT22;10992;48.170;8.596;2022-11-14T16:23:43;7.60;99.90
21662;DHT22;10992;48.170;8.596;2022-11-14T16:26:29;7.60;99.90
21662;DHT22;10992;48.170;8.596;2022-11-14T16:29:17;7.50;99.90
21662;DHT22;10992;48.170;8.596;2022-11-14T16:32:02;7.60;99.90
21662;DHT22;10992;48.170;8.596;2022-11-14T16:34:48;7.50;99.90
21662;DHT22;10992;48.170;8.596;2022-11-14T16:37:33;7.50;99.90
21662;DHT22;10992;48.170;8.596;2022-11-14T16:40:26;7.60;99.90
21662;DHT22;10992;48.170;8.596;2022-11-14T16:43:13;7.60;99.90
21662;DHT22;10992;48.170;8.596;2022-11-14T16:46:05;7.60;99.90
21662;DHT22;10992;48.170;8.596;2022-11-14T16:48:50;7.60;99.90
21662;DHT22;10992;48.170;8.596;2022-11-14T16:51:36;7.60;99.90
21662;DHT22;10992;48.170;8.596;2022-11-14T16:54:33;7.70;99.90
21662;DHT22;10992;48.170;8.596;2022-11-14T16:57:19;7.70;99.90
21662;DHT22;10992;48.170;8.596;2022-11-14T17:00:10;7.70;99.90
21662;DHT22;10992;48.170;8.596;2022-11-14T17:02:57;7.60;99.90
21662;DHT22;10992;48.170;8.596;2022-11-14T17:05:47;7.60;99.90
21662;DHT22;10992;48.170;8.596;2022-11-14T17:08:33;7.60;99.90
21662;DHT22;10992;48.170;8.596;2022-11-14T17:11:18;7.60;99.90
21662;DHT22;10992;48.170;8.596;2022-11-14T17:14:04;7.50;99.90
21662;DHT22;10992;48.170;8.596;2022-11-14T17:16:49;7.50;99.90
21662;DHT22;10992;48.170;8.596;2022-11-14T17:19:35;7.60;99.90
21662;DHT22;10992;48.170;8.596;2022-11-14T17:22:20;7.60;99.90
21662;DHT22;10992;48.170;8.596;2022-11-14T17:25:06;7.60;99.90
21662;DHT22;10992;48.170;8.596;2022-11-14T17:27:52;7.60;99.90
21662;DHT22;10992;48.170;8.596;2022-11-14T17:30:41;7.70;99.90
21662;DHT22;10992;48.170;8.596;2022-11-14T17:33:27;7.70;99.90
21662;DHT22;10992;48.170;8.596;2022-11-14T17:36:13;7.80;99.90
21662;DHT22;10992;48.170;8.596;2022-11-14T17:38:59;7.80;99.90
21662;DHT22;10992;48.170;8.596;2022-11-14T17:41:45;7.80;99.90
21662;DHT22;10992;48.170;8.596;2022-11-14T17:44:30;7.80;99.90
21662;DHT22;10992;48.170;8.596;2022-11-14T17:47:16;7.90;99.90
21662;DHT22;10992;48.170;8.596;2022-11-14T17:50:02;7.80;99.90
21662;DHT22;10992;48.170;8.596;2022-11-14T17:52:48;7.80;99.90
21662;DHT22;10992;48.170;8.596;2022-11-14T17:55:33;7.80;99.90
21662;DHT22;10992;48.170;8.596;2022-11-14T17:58:19;7.80;99.90
21662;DHT22;10992;48.170;8.596;2022-11-14T18:01:10;7.80;99.90
21662;DHT22;10992;48.170;8.596;2022-11-14T18:03:56;7.80;99.90
21662;DHT22;10992;48.170;8.596;2022-11-14T18:06:50;7.80;99.90
21662;DHT22;10992;48.170;8.596;2022-11-14T18:09:36;7.80;99.90
21662;DHT22;10992;48.170;8.596;2022-11-14T18:12:21;7.90;99.90
21662;DHT22;10992;48.170;8.596;2022-11-14T18:15:07;7.90;99.90
21662;DHT22;10992;48.170;8.596;2022-11-14T18:17:52;7.90;99.90
21662;DHT22;10992;48.170;8.596;2022-11-14T18:20:38;7.90;99.90
21662;DHT22;10992;48.170;8.596;2022-11-14T18:23:24;7.80;99.90
21662;DHT22;10992;48.170;8.596;2022-11-14T18:26:11;7.80;99.90
21662;DHT22;10992;48.170;8.596;2022-11-14T18:28:58;7.80;99.90
21662;DHT22;10992;48.170;8.596;2022-11-14T18:31:44;7.80;99.90
21662;DHT22;10992;48.170;8.596;2022-11-14T18:34:30;7.70;99.90
21662;DHT22;10992;48.170;8.596;2022-11-14T18:37:15;7.70;99.90
21662;DHT22;10992;48.170;8.596;2022-11-14T18:40:01;7.70;99.90
21662;DHT22;10992;48.170;8.596;2022-11-14T18:42:47;7.70;99.90
21662;DHT22;10992;48.170;8.596;2022-11-14T18:45:33;7.70;99.90
21662;DHT22;10992;48.170;8.596;2022-11-14T18:48:19;7.70;99.90
21662;DHT22;10992;48.170;8.596;2022-11-14T18:51:17;7.70;99.90
21662;DHT22;10992;48.170;8.596;2022-11-14T18:54:02;7.70;99.90
21662;DHT22;10992;48.170;8.596;2022-11-14T18:56:48;7.70;99.90
21662;DHT22;10992;48.170;8.596;2022-11-14T18:59:33;7.70;99.90
21662;DHT22;10992;48.170;8.596;2022-11-14T19:02:19;7.70;99.90
21662;DHT22;10992;48.170;8.596;2022-11-14T19:05:05;7.70;99.90
21662;DHT22;10992;48.170;8.596;2022-11-14T19:07:53;7.60;99.90
21662;DHT22;10992;48.170;8.596;2022-11-14T19:10:39;7.60;99.90
21662;DHT22;10992;48.170;8.596;2022-11-14T19:13:24;7.50;99.90
21662;DHT22;10992;48.170;8.596;2022-11-14T19:16:10;7.50;99.90
21662;DHT22;10992;48.170;8.596;2022-11-14T19:18:56;7.50;99.90
21662;DHT22;10992;48.170;8.596;2022-11-14T19:21:41;7.50;99.90
21662;DHT22;10992;48.170;8.596;2022-11-14T19:24:27;7.50;99.90
21662;DHT22;10992;48.170;8.596;2022-11-14T19:27:13;7.40;99.90
21662;DHT22;10992;48.170;8.596;2022-11-14T19:29:58;6.30;99.90
21662;DHT22;10992;48.170;8.596;2022-11-14T19:32:44;7.40;99.90
21662;DHT22;10992;48.170;8.596;2022-11-14T19:35:29;7.30;99.90
21662;DHT22;10992;48.170;8.596;2022-11-14T19:38:15;7.30;99.90
21662;DHT22;10992;48.170;8.596;2022-11-14T19:41:08;7.30;99.90
21662;DHT22;10992;48.170;8.596;2022-11-14T19:43:56;7.20;99.90
21662;DHT22;10992;48.170;8.596;2022-11-14T19:46:42;7.20;99.90
21662;DHT22;10992;48.170;8.596;2022-11-14T19:49:32;7.20;99.90